Time;durP1;ratioP1;P1;durP2;ratioP2;P2;SDS_P1;SDS_P2;PMS_P1;PMS_P2;Temp;Humidity;BMP_temperature;BMP_pressure;BME280_temperature;BME280_humidity;BME280_pressure;Samples;Min_cycle;Max_cycle;Signal;HPM_P1;HPM_P2
2022/02/21 00:00:31;;;;;;;3.90;2.08;;;;;;;7.15;82.20;98681.33;1657917;86;21066;-76
2022/02/21 00:02:59;;;;;;;4.20;2.27;;;;;;;7.17;82.25;98671.73;1657777;86;21556;-76
2022/02/21 00:05:27;;;;;;;2.75;2.20;;;;;;;7.20;82.27;98673.08;1658118;85;21058;-75
2022/02/21 00:07:53;;;;;;;6.10;2.70;;;;;;;7.22;82.28;98660.88;1658084;86;22599;-76
2022/02/21 00:10:20;;;;;;;4.83;2.35;;;;;;;7.24;82.25;98653.03;1658074;86;21050;-76
2022/02/21 00:12:47;;;;;;;12.13;5.50;;;;;;;7.26;82.25;98644.75;1658168;85;21086;-76
2022/02/21 00:15:17;;;;;;;12.10;6.30;;;;;;;7.28;82.21;98633.45;1658035;85;21094;-76
2022/02/21 00:17:42;;;;;;;5.67;3.10;;;;;;;7.31;82.25;98631.27;1657713;86;21243;-76
2022/02/21 00:20:09;;;;;;;4.47;2.12;;;;;;;7.34;82.23;98631.29;1658228;85;21652;-76
2022/02/21 00:22:36;;;;;;;3.40;2.10;;;;;;;7.36;82.15;98621.25;1631390;86;21058;-76
2022/02/21 00:25:03;;;;;;;2.90;1.90;;;;;;;7.37;82.15;98613.83;1658329;86;22266;-76
2022/02/21 00:27:30;;;;;;;2.80;1.80;;;;;;;7.39;82.16;98607.30;1658115;85;21189;-76
2022/02/21 00:29:57;;;;;;;2.42;1.70;;;;;;;7.41;82.18;98604.23;1658141;85;21129;-76
2022/02/21 00:32:23;;;;;;;2.12;1.80;;;;;;;7.43;82.18;98597.70;1657982;85;21732;-76
2022/02/21 00:34:50;;;;;;;3.58;1.77;;;;;;;7.45;82.17;98589.42;1657956;86;21567;-76
2022/02/21 00:37:16;;;;;;;4.03;1.80;;;;;;;7.46;82.03;98587.26;1658057;85;21130;-76
2022/02/21 00:39:43;;;;;;;2.37;1.57;;;;;;;7.46;82.02;98574.17;1657707;85;21215;-76
2022/02/21 00:42:10;;;;;;;2.65;1.52;;;;;;;7.48;82.06;98573.30;1657756;85;21631;-76
2022/02/21 00:44:37;;;;;;;3.02;1.87;;;;;;;7.48;82.00;98559.34;1657970;86;21742;-76
2022/02/21 00:47:04;;;;;;;1.98;1.67;;;;;;;7.47;81.97;98554.95;1658016;85;21098;-76
2022/02/21 00:49:30;;;;;;;2.12;1.62;;;;;;;7.46;81.96;98564.56;1658119;86;21133;-76
2022/02/21 00:51:58;;;;;;;3.58;1.70;;;;;;;7.45;82.03;98550.16;1658321;86;21086;-76
2022/02/21 00:54:28;;;;;;;3.85;2.52;;;;;;;7.44;82.07;98549.30;1658240;85;21118;-76
2022/02/21 00:56:55;;;;;;;5.30;3.02;;;;;;;7.44;82.05;98536.65;1658170;85;22598;-76
2022/02/21 00:59:21;;;;;;;6.62;3.47;;;;;;;7.33;82.07;98511.31;1657814;85;21106;-76
2022/02/21 01:01:48;;;;;;;8.38;3.02;;;;;;;7.43;82.09;98523.11;1658092;86;21137;-76
2022/02/21 01:04:16;;;;;;;3.00;1.92;;;;;;;7.42;82.15;98519.62;1657978;85;21313;-75
2022/02/21 01:06:43;;;;;;;2.02;1.77;;;;;;;7.41;82.15;98512.63;1658008;85;21145;-75
2022/02/21 01:09:10;;;;;;;2.40;1.82;;;;;;;7.41;82.20;98504.78;1657881;85;21850;-76
2022/02/21 01:11:37;;;;;;;3.30;1.80;;;;;;;7.39;82.20;98500.88;1658118;85;21083;-76
2022/02/21 01:14:03;;;;;;;2.60;1.57;;;;;;;7.40;82.29;98491.27;1657833;85;21146;-76
2022/02/21 01:16:30;;;;;;;1.50;1.40;;;;;;;7.29;82.29;98470.31;1657975;86;21078;-76
2022/02/21 01:18:57;;;;;;;2.80;1.52;;;;;;;7.38;82.31;98481.24;1657943;86;21066;-76
2022/02/21 01:21:24;;;;;;;1.95;1.50;;;;;;;7.38;82.31;98474.70;1657886;85;21735;-76
2022/02/21 01:23:50;;;;;;;1.92;1.52;;;;;;;7.38;82.33;98471.64;1657952;85;21038;-76
2022/02/21 01:26:17;;;;;;;1.70;1.40;;;;;;;7.39;82.35;98460.72;1657918;85;21094;-76
2022/02/21 01:28:43;;;;;;;2.12;1.32;;;;;;;7.39;82.34;98447.64;1658067;86;21177;-76
2022/02/21 01:31:10;;;;;;;2.17;1.65;;;;;;;7.39;82.33;98444.61;1657856;85;21118;-76
2022/02/21 01:33:37;;;;;;;1.82;1.50;;;;;;;7.39;82.31;98439.78;1658070;86;21753;-76
2022/02/21 01:36:04;;;;;;;2.50;1.47;;;;;;;7.38;82.37;98436.75;1658249;85;21078;-76
2022/02/21 01:38:31;;;;;;;2.27;1.40;;;;;;;7.38;82.39;98435.00;1657923;84;21070;-76
2022/02/21 01:40:57;;;;;;;1.42;1.32;;;;;;;7.38;82.42;98425.84;1658176;85;21074;-76
2022/02/21 01:43:24;;;;;;;2.27;1.92;;;;;;;7.40;82.39;98423.23;1657839;85;21064;-76
2022/02/21 01:45:51;;;;;;;2.10;1.47;;;;;;;7.39;82.41;98410.59;1658210;85;22493;-76
2022/02/21 01:51:00;;;;;;;1.35;1.05;;;;;;;7.42;82.45;98395.75;1866744;76;21926;-77
2022/02/21 01:53:27;;;;;;;2.72;2.10;;;;;;;7.38;82.48;98387.02;1823831;78;21732;-77
2022/02/21 01:55:53;;;;;;;1.87;1.52;;;;;;;7.37;82.46;98380.89;1824348;78;21711;-76
2022/02/21 01:58:20;;;;;;;1.50;1.40;;;;;;;7.38;82.50;98377.86;1824195;78;21026;-76
2022/02/21 02:00:47;;;;;;;1.65;1.15;;;;;;;7.38;82.51;98362.16;1824271;78;21057;-76
2022/02/21 02:03:16;;;;;;;1.52;1.42;;;;;;;7.38;82.52;98364.34;1824153;78;21564;-77
2022/02/21 02:05:42;;;;;;;1.70;1.40;;;;;;;7.36;82.52;98355.61;1788004;79;21579;-76
2022/02/21 02:08:09;;;;;;;1.55;1.30;;;;;;;7.34;82.53;98346.03;1787963;78;21723;-76
2022/02/21 02:10:35;;;;;;;1.37;1.15;;;;;;;7.35;82.61;98332.06;1787848;80;21046;-76
2022/02/21 02:13:02;;;;;;;1.85;1.20;;;;;;;7.35;82.59;98332.06;1788041;78;21280;-76
2022/02/21 02:15:29;;;;;;;1.22;1.12;;;;;;;7.33;82.62;98318.97;1788134;78;21094;-76
2022/02/21 02:17:55;;;;;;;1.98;1.42;;;;;;;7.34;82.68;98327.27;1787996;78;21027;-76
2022/02/21 02:20:22;;;;;;;2.20;1.40;;;;;;;7.34;82.70;98314.19;1787809;79;22551;-76
2022/02/21 02:22:49;;;;;;;1.37;1.25;;;;;;;7.31;82.73;98303.70;1787628;78;21074;-76
2022/02/21 02:25:15;;;;;;;1.50;1.40;;;;;;;7.33;82.75;98303.71;1748103;80;21033;-76
2022/02/21 02:27:44;;;;;;;2.08;1.45;;;;;;;7.32;82.78;98288.45;1787589;78;21125;-76
2022/02/21 02:30:11;;;;;;;2.12;1.30;;;;;;;7.33;82.80;98282.78;1787851;79;21093;-77
2022/02/21 02:32:38;;;;;;;1.60;1.45;;;;;;;7.32;82.81;98284.95;1787937;78;22560;-76
2022/02/21 02:35:05;;;;;;;2.70;1.30;;;;;;;7.33;82.85;98269.69;1787900;78;21568;-76
2022/02/21 02:37:32;;;;;;;1.77;1.50;;;;;;;7.33;82.90;98260.09;1787764;79;21050;-76
2022/02/21 02:39:59;;;;;;;1.87;1.37;;;;;;;7.33;82.89;98251.38;1787709;78;21050;-76
2022/02/21 02:42:26;;;;;;;2.55;1.27;;;;;;;7.34;82.90;98244.84;1787689;80;21070;-76
2022/02/21 02:44:53;;;;;;;2.17;1.30;;;;;;;7.34;82.84;98238.74;1787989;78;23012;-76
2022/02/21 02:47:20;;;;;;;2.22;1.32;;;;;;;7.34;82.90;98230.89;1787755;79;21016;-76
2022/02/21 02:49:48;;;;;;;2.27;1.35;;;;;;;7.35;82.95;98229.55;1789559;78;21503;-76
2022/02/21 02:52:15;;;;;;;1.50;1.22;;;;;;;7.34;82.91;98219.98;1793507;79;21604;-76
2022/02/21 02:54:42;;;;;;;4.53;1.02;;;;;;;7.35;82.95;98221.70;1793217;79;21106;-77
2022/02/21 02:57:09;;;;;;;1.12;1.02;;;;;;;7.35;82.96;98202.08;1793306;78;23055;-76
2022/02/21 02:59:35;;;;;;;1.37;1.12;;;;;;;7.35;83.01;98195.98;1793306;78;21104;-77
2022/02/21 03:02:02;;;;;;;2.27;1.30;;;;;;;7.35;82.99;98201.21;1792897;78;21469;-77
2022/02/21 03:04:28;;;;;;;1.92;1.30;;;;;;;7.35;83.00;98202.08;1792603;78;21081;-77
2022/02/21 03:07:00;;;;;;;1.77;1.22;;;;;;;7.35;83.00;98185.51;1793174;78;21094;-76
2022/02/21 03:09:24;;;;;;;1.45;1.12;;;;;;;7.36;83.06;98192.50;1792885;78;21772;-76
2022/02/21 03:11:51;;;;;;;1.37;1.10;;;;;;;7.36;83.09;98190.75;1793423;80;21038;-76
2022/02/21 03:14:17;;;;;;;1.70;1.10;;;;;;;7.38;83.09;98182.89;1793023;78;21078;-77
2022/02/21 03:16:44;;;;;;;2.15;1.00;;;;;;;7.38;83.06;98175.91;1793303;78;21113;-76
2022/02/21 03:19:10;;;;;;;1.40;1.30;;;;;;;7.39;83.06;98171.13;1793266;80;21066;-77
2022/02/21 03:21:37;;;;;;;1.50;1.10;;;;;;;7.40;83.12;98149.73;1793132;80;22567;-76
2022/02/21 03:24:04;;;;;;;2.42;1.10;;;;;;;7.39;83.10;98138.82;1793200;79;21026;-76
2022/02/21 03:26:31;;;;;;;2.05;1.30;;;;;;;7.40;83.11;98123.56;1793142;78;21004;-76
2022/02/21 03:28:58;;;;;;;1.52;1.15;;;;;;;7.40;83.08;98107.41;1793091;78;21627;-76
2022/02/21 03:31:24;;;;;;;3.40;1.20;;;;;;;7.39;83.04;98097.84;1793025;79;21026;-76
2022/02/21 03:33:53;;;;;;;2.15;1.30;;;;;;;7.38;83.07;98088.23;1792705;78;21027;-76
2022/02/21 03:36:19;;;;;;;1.20;1.07;;;;;;;7.38;83.08;98088.69;1792984;78;21466;-76
2022/02/21 03:38:46;;;;;;;1.32;1.22;;;;;;;7.37;83.12;98078.63;1793013;78;21546;-76
2022/02/21 03:41:12;;;;;;;2.25;1.32;;;;;;;7.36;83.16;98072.98;1793186;78;21031;-76
2022/02/21 03:43:41;;;;;;;2.10;1.20;;;;;;;7.38;83.14;98070.37;1793146;78;21059;-76
2022/02/21 03:46:07;;;;;;;2.42;1.45;;;;;;;7.36;83.16;98060.34;1793339;78;21750;-76
2022/02/21 03:48:34;;;;;;;1.85;1.30;;;;;;;7.36;83.21;98053.80;1793321;78;21050;-76
2022/02/21 03:51:01;;;;;;;2.40;1.32;;;;;;;7.37;83.25;98053.77;1788501;79;20988;-76
2022/02/21 03:53:27;;;;;;;1.55;1.32;;;;;;;7.38;83.26;98045.50;1786882;78;21544;-77
2022/02/21 03:55:55;;;;;;;1.85;1.10;;;;;;;7.39;83.28;98040.69;1787225;80;21654;-77
2022/02/21 03:58:22;;;;;;;1.85;1.10;;;;;;;7.39;83.28;98031.53;1787166;79;21753;-76
2022/02/21 04:00:49;;;;;;;3.72;1.20;;;;;;;7.39;83.28;98034.14;1787139;79;21570;-76
2022/02/21 04:03:16;;;;;;;0.78;0.78;;;;;;;7.38;83.34;98033.28;1787194;80;21130;-76
2022/02/21 04:05:42;;;;;;;1.70;1.20;;;;;;;7.39;83.40;98026.29;1787129;78;21097;-77
2022/02/21 04:08:09;;;;;;;1.55;1.00;;;;;;;7.39;83.45;98024.56;1787360;78;21117;-77
2022/02/21 04:10:36;;;;;;;1.05;0.93;;;;;;;7.40;83.51;98018.44;1787035;80;21720;-76
2022/02/21 04:13:02;;;;;;;1.80;1.15;;;;;;;7.41;83.51;98010.14;1787303;80;21027;-76
2022/02/21 04:15:29;;;;;;;1.42;1.02;;;;;;;7.38;83.45;97990.10;1787250;80;21136;-77
2022/02/21 04:17:56;;;;;;;2.45;1.12;;;;;;;7.38;83.48;97986.63;1786884;78;21098;-76
2022/02/21 04:20:23;;;;;;;1.40;1.10;;;;;;;7.38;83.55;97977.47;1787349;79;21106;-76
2022/02/21 04:22:50;;;;;;;0.90;0.85;;;;;;;7.39;83.65;97973.95;1787488;79;21796;-76
2022/02/21 04:25:16;;;;;;;2.60;1.07;;;;;;;7.40;83.67;97964.78;1787268;78;21042;-76
2022/02/21 04:27:48;;;;;;;2.50;1.05;;;;;;;7.42;83.71;97967.40;1787185;78;21081;-76
2022/02/21 04:30:18;;;;;;;1.22;0.98;;;;;;;7.45;83.75;97965.19;1787108;78;21062;-76
2022/02/21 04:32:46;;;;;;;1.45;1.00;;;;;;;7.45;83.71;97957.34;1787154;78;21110;-76
2022/02/21 04:35:13;;;;;;;1.22;1.00;;;;;;;7.37;83.74;97937.32;1787001;79;21756;-76
2022/02/21 04:37:40;;;;;;;1.12;0.95;;;;;;;7.46;83.79;97956.47;1767031;80;21066;-76
2022/02/21 04:40:09;;;;;;;1.92;1.25;;;;;;;7.46;83.83;97940.77;1787096;78;21117;-76
2022/02/21 04:42:35;;;;;;;1.52;0.90;;;;;;;7.49;83.94;97940.73;1786817;80;21039;-76
2022/02/21 04:45:02;;;;;;;1.12;0.98;;;;;;;7.51;83.97;97942.92;1787031;80;21700;-76
2022/02/21 04:47:29;;;;;;;2.25;1.10;;;;;;;7.51;84.01;97931.14;1785251;79;22734;-76
2022/02/21 04:49:55;;;;;;;1.20;0.90;;;;;;;7.51;84.03;97916.30;1786548;79;21165;-76
2022/02/21 04:52:22;;;;;;;1.20;0.70;;;;;;;7.51;84.10;97921.98;1794769;79;21120;-76
2022/02/21 04:54:49;;;;;;;1.27;1.00;;;;;;;7.52;84.14;97911.92;1794085;78;21512;-76
2022/02/21 04:57:18;;;;;;;1.05;0.95;;;;;;;7.55;84.21;97918.00;1788237;78;21046;-76
2022/02/21 04:59:44;;;;;;;1.40;1.30;;;;;;;7.55;84.17;97914.08;1773547;78;22698;-76
2022/02/21 05:02:10;;;;;;;2.47;1.47;;;;;;;7.56;84.25;97896.61;1791894;79;21097;-76
2022/02/21 05:04:37;;;;;;;1.52;1.20;;;;;;;7.58;84.34;97902.70;1805183;78;21049;-77
2022/02/21 05:07:04;;;;;;;2.52;1.10;;;;;;;7.61;84.35;97903.98;1792375;79;21598;-76
2022/02/21 05:09:31;;;;;;;2.37;1.37;;;;;;;7.61;84.46;97899.20;1761142;81;21096;-76
2022/02/21 05:11:57;;;;;;;1.70;1.10;;;;;;;7.63;84.67;97901.36;1792399;80;21751;-76
2022/02/21 05:14:25;;;;;;;3.25;1.30;;;;;;;7.64;84.72;97894.81;1761107;81;21068;-75
2022/02/21 05:16:54;;;;;;;1.75;1.15;;;;;;;7.67;84.87;97893.91;1793350;79;21048;-76
2022/02/21 05:19:21;;;;;;;1.20;1.00;;;;;;;7.68;84.72;97891.28;1796079;79;21092;-76
2022/02/21 05:21:47;;;;;;;1.92;1.02;;;;;;;7.69;84.67;97873.36;1760797;80;21061;-76
2022/02/21 05:24:14;;;;;;;1.70;1.20;;;;;;;7.72;84.67;97873.34;1760856;81;21789;-76
2022/02/21 05:26:40;;;;;;;2.33;1.27;;;;;;;7.75;84.67;97882.48;1760642;81;21089;-76
2022/02/21 05:29:07;;;;;;;2.20;1.37;;;;;;;7.78;84.69;97866.73;1760775;80;21662;-76
2022/02/21 05:31:34;;;;;;;3.80;1.45;;;;;;;7.81;84.63;97860.61;1760719;81;21128;-77
2022/02/21 05:34:00;;;;;;;1.22;1.00;;;;;;;7.82;84.61;97841.83;1761037;80;21066;-76
2022/02/21 05:36:27;;;;;;;1.85;1.07;;;;;;;7.82;84.50;97850.55;1760840;80;21747;-76
2022/02/21 05:38:53;;;;;;;1.85;1.10;;;;;;;7.84;84.60;97855.77;1761045;80;21763;-76
2022/02/21 05:41:20;;;;;;;3.50;1.30;;;;;;;7.85;84.56;97870.16;1760890;81;21027;-76
2022/02/21 05:43:46;;;;;;;1.10;1.00;;;;;;;7.87;84.60;97859.23;1760851;80;21161;-76
2022/02/21 05:46:13;;;;;;;3.42;1.00;;;;;;;7.90;84.60;97853.08;1760729;81;21065;-76
2022/02/21 05:48:40;;;;;;;1.55;1.00;;;;;;;7.92;84.59;97856.12;1760685;81;21798;-75
2022/02/21 05:51:06;;;;;;;1.40;0.98;;;;;;;7.96;84.58;97859.13;1745908;81;21129;-75
2022/02/21 05:53:36;;;;;;;1.10;1.00;;;;;;;7.98;84.51;97853.88;1709823;82;21062;-75
2022/02/21 05:56:03;;;;;;;1.95;1.20;;;;;;;7.98;84.59;97853.88;1752274;80;21110;-74
2022/02/21 05:58:29;;;;;;;1.75;1.10;;;;;;;7.95;84.57;97846.05;1725502;83;21079;-75
2022/02/21 06:00:56;;;;;;;2.83;1.05;;;;;;;7.94;84.52;97844.33;1722649;81;21778;-74
2022/02/21 06:03:22;;;;;;;1.22;1.05;;;;;;;7.97;84.51;97847.75;1733192;80;21592;-75
2022/02/21 06:05:49;;;;;;;1.98;1.10;;;;;;;7.99;84.51;97846.43;1755687;81;21082;-75
2022/02/21 06:08:16;;;;;;;2.33;1.37;;;;;;;8.03;84.47;97844.64;1755634;81;21623;-75
2022/02/21 06:10:42;;;;;;;3.35;1.30;;;;;;;8.05;84.36;97845.07;1755714;81;21109;-75
2022/02/21 06:13:09;;;;;;;2.80;1.00;;;;;;;8.08;84.27;97831.06;1755879;80;22571;-75
2022/02/21 06:15:36;;;;;;;1.27;1.02;;;;;;;8.08;84.11;97817.95;1755741;81;21078;-75
2022/02/21 06:18:02;;;;;;;1.92;1.20;;;;;;;8.04;83.93;97811.03;1755647;81;20992;-75
2022/02/21 06:20:29;;;;;;;2.52;1.20;;;;;;;8.01;83.85;97828.08;1755575;81;21566;-76
2022/02/21 06:22:55;;;;;;;1.98;1.20;;;;;;;7.97;83.79;97824.62;1755789;81;21588;-75
2022/02/21 06:25:22;;;;;;;1.47;1.10;;;;;;;7.95;83.84;97818.09;1755620;81;21751;-75
2022/02/21 06:27:49;;;;;;;2.37;1.15;;;;;;;7.97;83.95;97820.25;1755726;81;21743;-75
2022/02/21 06:30:15;;;;;;;1.37;0.88;;;;;;;8.03;84.00;97825.00;1755906;81;21612;-75
2022/02/21 06:32:43;;;;;;;4.08;1.52;;;;;;;8.10;84.03;97817.50;1755563;81;21708;-75
2022/02/21 06:35:14;;;;;;;1.52;1.20;;;;;;;8.17;83.95;97804.75;1767583;80;21035;-75
2022/02/21 06:37:43;;;;;;;2.17;1.35;;;;;;;8.22;83.89;97800.33;1752466;81;23233;-75
2022/02/21 06:40:12;;;;;;;4.33;2.50;;;;;;;8.27;83.91;97802.88;1783362;80;20999;-75
2022/02/21 06:42:38;;;;;;;2.45;1.75;;;;;;;8.30;83.77;97812.02;1754391;81;21074;-75
2022/02/21 06:45:06;;;;;;;2.90;1.62;;;;;;;8.34;83.63;97805.84;1753689;81;21039;-76
2022/02/21 06:47:33;;;;;;;2.05;1.30;;;;;;;8.38;83.50;97814.94;1753611;81;21133;-75
2022/02/21 06:50:01;;;;;;;4.35;1.80;;;;;;;8.43;83.37;97816.66;1754127;80;22527;-76
2022/02/21 06:52:28;;;;;;;3.22;1.60;;;;;;;8.46;83.27;97816.62;1747432;81;21063;-75
2022/02/21 06:54:55;;;;;;;2.83;1.60;;;;;;;8.50;83.13;97802.58;1747227;82;21047;-75
2022/02/21 06:57:25;;;;;;;1.90;1.30;;;;;;;8.54;83.05;97810.85;1747334;82;21016;-75
2022/02/21 06:59:51;;;;;;;2.12;1.30;;;;;;;8.58;82.78;97795.50;1747383;81;21055;-75
2022/02/21 07:02:18;;;;;;;2.65;1.27;;;;;;;8.59;82.53;97815.56;1747337;82;22799;-75
2022/02/21 07:04:45;;;;;;;3.37;1.25;;;;;;;8.54;82.36;97835.30;1747344;82;21588;-75
2022/02/21 07:07:11;;;;;;;1.92;0.95;;;;;;;8.59;82.33;97835.23;1747453;82;21023;-76
2022/02/21 07:09:38;;;;;;;2.35;1.15;;;;;;;8.59;82.19;97854.03;1747328;82;21188;-75
2022/02/21 07:12:06;;;;;;;1.30;1.00;;;;;;;8.50;82.14;97834.93;1747453;82;21070;-75
2022/02/21 07:14:33;;;;;;;3.22;1.35;;;;;;;8.61;81.96;97840.00;1747338;81;22586;-75
2022/02/21 07:17:03;;;;;;;1.07;0.98;;;;;;;8.61;81.86;97841.77;1747436;80;21051;-75
2022/02/21 07:19:29;;;;;;;2.08;1.35;;;;;;;8.64;81.74;97885.00;1747118;82;21199;-75
2022/02/21 07:21:56;;;;;;;1.27;0.72;;;;;;;8.66;81.67;97918.16;1747360;81;21114;-75
2022/02/21 07:24:22;;;;;;;1.47;1.15;;;;;;;8.65;80.97;97926.94;1747252;81;21126;-75
2022/02/21 07:26:49;;;;;;;0.80;0.60;;;;;;;8.60;79.87;97943.16;1747284;81;22572;-75
2022/02/21 07:29:16;;;;;;;0.80;0.60;;;;;;;8.56;79.46;97940.16;1747415;81;21035;-76
2022/02/21 07:31:43;;;;;;;1.00;0.60;;;;;;;8.50;78.95;97942.83;1747302;82;21678;-75
2022/02/21 07:34:10;;;;;;;0.60;0.60;;;;;;;8.43;78.75;97944.67;1747405;81;21310;-75
2022/02/21 07:36:36;;;;;;;0.42;0.42;;;;;;;8.40;78.38;97943.80;1747461;81;21071;-75
2022/02/21 07:39:04;;;;;;;1.12;0.60;;;;;;;8.27;77.88;97957.03;1747584;81;21659;-75
2022/02/21 07:41:30;;;;;;;0.90;0.62;;;;;;;8.16;77.92;97953.23;1747190;81;21604;-76
2022/02/21 07:43:57;;;;;;;0.47;0.42;;;;;;;8.04;77.65;97937.63;1747294;82;21079;-76
2022/02/21 07:46:24;;;;;;;1.15;0.70;;;;;;;7.91;77.56;97961.75;1747213;81;21079;-75
2022/02/21 07:48:50;;;;;;;0.80;0.45;;;;;;;7.81;77.58;97955.30;1747243;81;21373;-75
2022/02/21 07:51:17;;;;;;;0.50;0.50;;;;;;;7.73;77.65;97944.89;1747143;81;21755;-76
2022/02/21 07:53:44;;;;;;;1.67;0.82;;;;;;;7.69;77.71;97951.91;1747068;82;21051;-76
2022/02/21 07:56:10;;;;;;;1.17;0.70;;;;;;;7.68;77.72;97962.41;1747429;82;21601;-75
2022/02/21 07:58:37;;;;;;;1.25;0.60;;;;;;;7.69;77.93;97978.09;1747520;81;21040;-75
2022/02/21 08:01:04;;;;;;;1.15;0.70;;;;;;;7.86;78.15;97989.73;1747559;82;21062;-76
2022/02/21 08:03:31;;;;;;;0.90;0.60;;;;;;;8.00;78.01;97993.55;1747061;81;21819;-75
2022/02/21 08:05:57;;;;;;;2.58;0.80;;;;;;;8.14;77.61;98006.06;1747237;81;21184;-75
2022/02/21 08:08:24;;;;;;;2.75;0.62;;;;;;;8.20;77.27;98029.17;1747320;81;21103;-76
2022/02/21 08:10:51;;;;;;;1.07;0.75;;;;;;;8.25;76.73;98041.34;1747582;82;21063;-75
2022/02/21 08:13:17;;;;;;;1.30;0.70;;;;;;;8.29;76.28;98051.36;1747619;82;21600;-76
2022/02/21 08:15:44;;;;;;;1.98;0.93;;;;;;;8.21;75.44;98071.09;1747446;82;22403;-76
2022/02/21 08:18:10;;;;;;;1.05;0.70;;;;;;;8.06;75.21;98076.46;1747305;81;21031;-75
2022/02/21 08:20:37;;;;;;;2.50;1.07;;;;;;;7.94;74.74;98072.20;1747157;82;21051;-75
2022/02/21 08:23:04;;;;;;;1.20;0.65;;;;;;;7.89;74.98;98070.05;1747334;81;21031;-75
2022/02/21 08:25:30;;;;;;;1.62;1.10;;;;;;;7.87;75.13;98084.91;1747076;82;21122;-76
2022/02/21 08:27:57;;;;;;;3.10;2.05;;;;;;;7.87;75.11;98091.00;1747216;81;21759;-75
2022/02/21 08:30:24;;;;;;;28.60;21.57;;;;;;;7.93;75.15;98094.02;1746906;81;21067;-76
2022/02/21 08:32:50;;;;;;;11.45;8.10;;;;;;;7.95;74.92;98083.09;1747225;81;21070;-76
2022/02/21 08:35:17;;;;;;;6.40;4.20;;;;;;;8.00;74.82;98098.78;1747145;81;21062;-76
2022/02/21 08:37:44;;;;;;;5.75;3.92;;;;;;;8.05;74.83;98123.17;1747101;81;21176;-76
2022/02/21 08:40:13;;;;;;;4.05;2.52;;;;;;;8.20;74.66;98121.75;1732028;82;21704;-76
2022/02/21 08:42:40;;;;;;;4.12;2.42;;;;;;;8.49;74.86;98128.10;1747482;81;21114;-76
2022/02/21 08:45:08;;;;;;;2.75;1.60;;;;;;;8.76;74.37;98132.66;1747688;81;21098;-76
2022/02/21 08:47:35;;;;;;;2.85;1.10;;;;;;;8.93;73.47;98125.92;1747421;81;21070;-76
2022/02/21 08:50:03;;;;;;;5.15;1.72;;;;;;;8.93;72.83;98128.55;1747644;82;21130;-76
2022/02/21 08:52:30;;;;;;;3.95;1.30;;;;;;;8.79;72.26;98123.91;1754368;80;21827;-75
2022/02/21 08:54:56;;;;;;;1.72;0.72;;;;;;;8.63;72.11;98121.86;1760950;81;21081;-76
2022/02/21 08:57:23;;;;;;;3.50;1.02;;;;;;;8.49;71.79;98100.58;1757948;81;20999;-75
2022/02/21 08:59:50;;;;;;;3.72;1.10;;;;;;;8.37;71.83;98092.36;1757892;81;21051;-76
2022/02/21 09:02:19;;;;;;;2.85;1.20;;;;;;;8.26;71.75;98103.80;1757997;81;21019;-76
2022/02/21 09:04:46;;;;;;;3.33;1.10;;;;;;;8.20;71.85;98109.09;1757734;81;22710;-76
2022/02/21 09:07:12;;;;;;;2.42;1.00;;;;;;;8.14;71.55;98105.63;1757637;81;21031;-75
2022/02/21 09:09:39;;;;;;;6.47;2.30;;;;;;;8.12;71.59;98127.50;1757765;81;21082;-76
2022/02/21 09:12:06;;;;;;;1.57;1.02;;;;;;;8.08;71.47;98121.41;1758027;81;21266;-75
2022/02/21 09:14:33;;;;;;;4.05;1.65;;;;;;;8.10;71.30;98142.36;1758053;81;21058;-76
2022/02/21 09:17:00;;;;;;;4.45;2.60;;;;;;;8.11;71.30;98125.33;1758062;81;22573;-75
2022/02/21 09:19:26;;;;;;;4.22;1.70;;;;;;;8.10;70.89;98141.91;1757904;81;21059;-76
2022/02/21 09:21:53;;;;;;;4.90;1.20;;;;;;;8.07;70.68;98132.78;1758305;81;21046;-75
2022/02/21 09:24:19;;;;;;;4.35;2.02;;;;;;;8.07;70.70;98125.34;1758015;81;21520;-76
2022/02/21 09:26:46;;;;;;;5.95;2.27;;;;;;;8.02;70.45;98134.56;1757951;81;21043;-76
2022/02/21 09:29:13;;;;;;;5.78;2.62;;;;;;;8.04;70.80;98139.79;1757922;81;21765;-76
2022/02/21 09:31:39;;;;;;;6.08;2.80;;;;;;;8.07;70.67;98142.38;1757757;81;21058;-76
2022/02/21 09:34:06;;;;;;;5.40;2.50;;;;;;;8.09;70.55;98149.77;1757878;81;21036;-76
2022/02/21 09:36:33;;;;;;;4.37;2.30;;;;;;;8.15;70.83;98173.34;1757666;81;21074;-76
2022/02/21 09:38:59;;;;;;;4.58;1.80;;;;;;;8.24;70.73;98139.21;1757789;81;21184;-76
2022/02/21 09:41:26;;;;;;;4.03;1.40;;;;;;;8.33;70.68;98161.42;1757637;81;22577;-75
2022/02/21 09:43:52;;;;;;;2.80;1.42;;;;;;;8.41;70.77;98187.98;1757752;81;20992;-75
2022/02/21 09:46:19;;;;;;;2.42;1.37;;;;;;;8.41;70.55;98182.33;1757769;81;21113;-75
2022/02/21 09:48:46;;;;;;;3.70;1.50;;;;;;;8.36;70.08;98186.72;1757772;81;21619;-75
2022/02/21 09:51:13;;;;;;;4.70;1.55;;;;;;;8.33;70.17;98194.59;1757545;81;21055;-75
2022/02/21 09:53:40;;;;;;;5.40;1.50;;;;;;;8.34;69.96;98189.35;1747005;82;22639;-75
2022/02/21 09:56:06;;;;;;;6.15;1.75;;;;;;;8.35;69.90;98190.21;1747116;81;21154;-77
2022/02/21 09:58:34;;;;;;;6.10;1.67;;;;;;;8.38;69.67;98192.83;1747338;81;21008;-77
2022/02/21 10:01:00;;;;;;;4.42;1.35;;;;;;;8.52;69.65;98197.98;1747382;81;21027;-77
2022/02/21 10:03:41;;;;;;;11.22;1.87;;;;;;;8.69;69.51;98197.42;1747226;81;21158;-77
2022/02/21 10:06:25;;;;;;;5.83;2.15;;;;;;;8.95;69.81;98209.00;1747101;81;21803;-77
2022/02/21 10:09:12;;;;;;;5.87;1.65;;;;;;;9.34;69.52;98192.84;1746998;81;21039;-77
2022/02/21 10:11:45;;;;;;;3.55;1.30;;;;;;;9.56;68.54;98207.05;1747114;81;21071;-77
2022/02/21 10:14:26;;;;;;;8.80;2.30;;;;;;;9.64;67.92;98215.70;1747823;80;21008;-77
2022/02/21 10:16:58;;;;;;;6.22;1.87;;;;;;;9.73;67.62;98215.14;1747473;81;21648;-76
2022/02/21 10:19:41;;;;;;;6.58;1.95;;;;;;;9.79;67.19;98235.20;1747611;81;21690;-77
2022/02/21 10:22:14;;;;;;;5.90;2.05;;;;;;;9.85;67.09;98247.40;1747507;81;21137;-77
2022/02/21 10:24:49;;;;;;;6.28;1.85;;;;;;;9.86;66.57;98259.21;1747483;81;25861;-77
2022/02/21 10:27:24;;;;;;;5.10;1.80;;;;;;;9.67;66.33;98252.45;1747073;82;21561;-77
2022/02/21 10:30:00;;;;;;;5.10;1.45;;;;;;;9.33;66.57;98268.56;1747335;81;21055;-77
2022/02/21 10:32:34;;;;;;;3.80;1.17;;;;;;;8.96;66.57;98296.44;1747186;82;21879;-75
2022/02/21 10:35:17;;;;;;;5.72;1.50;;;;;;;8.48;66.54;98304.62;1747396;81;21094;-75
2022/02/21 10:37:46;;;;;;;4.60;1.40;;;;;;;7.81;66.78;98322.81;1747461;82;21067;-75
2022/02/21 10:40:23;;;;;;;4.22;1.30;;;;;;;7.29;67.77;98330.31;1747696;82;21063;-75
2022/02/21 10:43:21;;;;;;;2.85;1.07;;;;;;;7.13;68.71;98346.89;1747163;81;21191;-75
2022/02/21 10:45:48;;;;;;;3.72;1.30;;;;;;;6.99;69.12;98336.43;1747775;81;21980;-76
2022/02/21 10:48:24;;;;;;;3.00;1.75;;;;;;;6.99;69.96;98324.22;1747238;82;21044;-76
2022/02/21 10:51:01;;;;;;;4.58;1.55;;;;;;;7.06;69.80;98329.03;1746651;81;21361;-76
2022/02/21 10:53:47;;;;;;;4.60;1.57;;;;;;;7.13;69.95;98343.86;1752473;81;21071;-75
2022/02/21 10:56:16;;;;;;;5.75;1.37;;;;;;;7.03;69.90;98338.17;1754189;81;21734;-76
2022/02/21 10:58:42;;;;;;;3.47;1.27;;;;;;;6.77;69.84;98365.59;1753706;80;21795;-76
2022/02/21 11:01:10;;;;;;;4.80;1.10;;;;;;;6.47;69.92;98384.25;1754256;81;21047;-76
2022/02/21 11:03:37;;;;;;;4.92;1.25;;;;;;;6.08;70.12;98386.27;1754051;81;21039;-76
2022/02/21 11:06:05;;;;;;;2.12;0.90;;;;;;;5.77;70.39;98386.08;1754122;81;21156;-76
2022/02/21 11:08:32;;;;;;;3.22;1.30;;;;;;;5.73;70.90;98380.41;1753972;81;21640;-76
2022/02/21 11:11:06;;;;;;;4.80;2.25;;;;;;;6.06;71.60;98374.50;1754108;81;21757;-76
2022/02/21 11:13:34;;;;;;;6.28;1.67;;;;;;;6.42;71.67;98369.02;1753607;81;21090;-75
2022/02/21 11:16:00;;;;;;;4.42;1.92;;;;;;;6.61;71.47;98362.95;1754049;81;21079;-75
2022/02/21 11:18:27;;;;;;;8.55;2.70;;;;;;;6.65;71.40;98363.84;1754041;81;21176;-75
2022/02/21 11:20:54;;;;;;;10.63;2.80;;;;;;;6.70;71.53;98362.12;1754261;81;21066;-75
2022/02/21 11:23:21;;;;;;;9.28;2.62;;;;;;;6.90;72.05;98353.42;1754239;81;21748;-76
2022/02/21 11:26:17;;;;;;;8.15;3.02;;;;;;;7.10;71.77;98356.92;1754067;80;21106;-75
2022/02/21 11:28:46;;;;;;;12.75;2.87;;;;;;;7.12;71.34;98359.55;1754078;81;21043;-76
2022/02/21 11:31:14;;;;;;;13.88;3.35;;;;;;;6.96;70.99;98353.01;1734658;81;21527;-76
2022/02/21 11:33:59;;;;;;;10.30;3.05;;;;;;;6.90;71.22;98335.98;1753877;81;21064;-76
2022/02/21 11:36:27;;;;;;;10.18;2.42;;;;;;;6.84;71.04;98339.91;1679962;85;21780;-76
2022/02/21 11:38:55;;;;;;;13.20;3.27;;;;;;;6.79;71.03;98339.02;1680053;85;21592;-76
2022/02/21 11:41:31;;;;;;;12.93;3.42;;;;;;;6.77;70.68;98340.76;1680213;85;21138;-76
2022/02/21 11:43:57;;;;;;;14.95;3.27;;;;;;;6.73;70.64;98335.09;1680209;84;21177;-76
2022/02/21 11:46:27;;;;;;;12.10;3.35;;;;;;;6.73;70.57;98349.03;1680185;85;21545;-76